Time;durP1;ratioP1;P1;durP2;ratioP2;P2;SDS_P1;SDS_P2;PMS_P1;PMS_P2;Temp;Humidity;BMP_temperature;BMP_pressure;BME280_temperature;BME280_humidity;BME280_pressure;Samples;Min_cycle;Max_cycle;Signal;HPM_P1;HPM_P2
2022/09/03 00:01:50;;;;;;;5.45;2.50;;;;;;;19.70;43.51;100967.19;5014642;28;20116;-51
2022/09/03 00:04:39;;;;;;;5.35;2.65;;;;;;;19.69;43.12;100976.63;4990779;28;20050;-50
2022/09/03 00:07:21;;;;;;;6.43;2.33;;;;;;;19.69;43.22;100976.63;5015330;28;20042;-49
2022/09/03 00:09:54;;;;;;;5.93;2.60;;;;;;;19.64;43.25;100969.28;5014820;28;20055;-49
2022/09/03 00:12:27;;;;;;;5.95;2.50;;;;;;;19.59;43.41;100970.25;5014631;28;20045;-47
2022/09/03 00:15:18;;;;;;;10.48;3.03;;;;;;;19.59;43.41;100967.47;5014621;28;20045;-48
2022/09/03 00:17:56;;;;;;;4.32;2.58;;;;;;;19.61;43.51;100971.88;4999583;28;20054;-48
2022/09/03 00:20:46;;;;;;;5.22;2.50;;;;;;;19.63;44.51;100972.38;5008783;28;20053;-48
2022/09/03 00:23:25;;;;;;;5.13;2.50;;;;;;;19.64;43.87;100968.47;5014658;28;20057;-49
2022/09/03 00:26:12;;;;;;;4.22;2.70;;;;;;;19.58;44.10;100971.41;5012897;28;20496;-49
2022/09/03 00:28:46;;;;;;;3.65;2.45;;;;;;;19.62;43.65;100967.97;5008043;28;20048;-50
2022/09/03 00:31:17;;;;;;;9.65;3.25;;;;;;;19.62;43.44;100965.22;5015114;28;20046;-50
2022/09/03 00:33:47;;;;;;;4.18;2.45;;;;;;;19.53;43.50;100963.28;5015196;28;20054;-49
2022/09/03 00:36:35;;;;;;;4.95;2.50;;;;;;;19.50;43.73;100969.44;5014027;28;20038;-50
2022/09/03 00:39:03;;;;;;;6.43;2.65;;;;;;;19.49;43.61;100962.28;5008916;28;20046;-49
2022/09/03 00:41:37;;;;;;;6.93;3.10;;;;;;;19.46;43.78;100968.47;5013769;28;20038;-50
2022/09/03 00:44:33;;;;;;;6.30;2.70;;;;;;;19.40;43.97;100969.75;5014250;28;20118;-53
2022/09/03 00:47:09;;;;;;;7.03;2.63;;;;;;;19.35;44.33;100978.22;5013641;28;20057;-50
2022/09/03 00:49:55;;;;;;;;;;;;;;;19.37;44.13;100971.22;5015113;28;20033;-47
2022/09/03 00:52:35;;;;;;;4.75;2.63;;;;;;;19.40;44.40;100975.28;5014929;28;19943;-49
2022/09/03 00:55:19;;;;;;;7.38;2.67;;;;;;;19.36;44.41;100972.38;5014768;28;20050;-50
2022/09/03 00:57:55;;;;;;;14.52;2.90;;;;;;;19.31;44.08;100966.16;5013277;28;20110;-51
2022/09/03 01:00:23;;;;;;;8.15;2.92;;;;;;;19.33;44.27;100963.91;5011435;28;20046;-50
2022/09/03 01:03:08;;;;;;;7.88;2.55;;;;;;;19.32;44.37;100967.81;5014647;28;20386;-50
2022/09/03 01:06:04;;;;;;;7.88;2.83;;;;;;;19.21;44.46;100967.28;4996939;28;20042;-49
2022/09/03 01:08:56;;;;;;;8.63;2.78;;;;;;;19.16;44.79;100962.75;5014226;28;20077;-50
2022/09/03 01:11:48;;;;;;;5.50;2.90;;;;;;;19.19;44.64;100963.22;4997238;28;20054;-50
2022/09/03 01:14:37;;;;;;;10.82;2.63;;;;;;;19.08;44.90;100962.75;4997481;28;20050;-52
2022/09/03 01:17:20;;;;;;;4.13;2.53;;;;;;;19.12;45.10;100958.19;4997015;28;20046;-50
2022/09/03 01:20:03;;;;;;;8.40;3.13;;;;;;;19.07;44.76;100963.84;5014427;28;20046;-53
2022/09/03 01:22:34;;;;;;;5.97;2.38;;;;;;;19.04;44.92;100957.03;4996786;28;20497;-51
2022/09/03 01:25:39;;;;;;;7.80;2.67;;;;;;;19.11;45.08;100962.09;5014435;28;20084;-48
2022/09/03 01:28:26;;;;;;;4.60;2.63;;;;;;;19.10;44.82;100971.53;5007945;28;20448;-49
2022/09/03 01:31:10;;;;;;;5.57;2.50;;;;;;;19.10;45.15;100972.31;4997229;28;20497;-49
2022/09/03 01:34:02;;;;;;;5.95;2.58;;;;;;;19.08;44.97;100969.06;5014262;28;20091;-51
2022/09/03 01:36:54;;;;;;;5.38;2.50;;;;;;;19.02;45.19;100981.41;5001115;28;20045;-51
2022/09/03 01:39:25;;;;;;;7.60;3.10;;;;;;;19.02;45.27;100973.09;5013693;28;20049;-53
2022/09/03 01:42:14;;;;;;;6.10;2.80;;;;;;;19.04;45.17;100979.13;5014743;28;20042;-53
2022/09/03 01:45:12;;;;;;;7.82;3.15;;;;;;;19.05;45.04;100969.72;5014858;28;20461;-49
2022/09/03 01:48:18;;;;;;;11.70;2.95;;;;;;;19.02;45.77;100970.34;5014896;28;20057;-48
2022/09/03 01:51:18;;;;;;;7.28;2.90;;;;;;;19.00;46.42;100978.16;5007610;28;20050;-48
2022/09/03 01:53:52;;;;;;;4.68;2.47;;;;;;;18.96;45.43;100959.78;4964426;28;20398;-50
2022/09/03 01:57:01;;;;;;;4.95;2.75;;;;;;;18.98;45.38;100963.84;5013831;28;20448;-51
2022/09/03 01:59:51;;;;;;;6.72;2.67;;;;;;;18.93;45.54;100967.59;4988019;28;20050;-50
2022/09/03 02:02:24;;;;;;;5.88;3.10;;;;;;;18.89;45.89;100965.78;5024009;28;20049;-49
2022/09/03 02:05:14;;;;;;;9.63;3.10;;;;;;;18.85;45.44;100975.81;5015597;28;20042;-52
2022/09/03 02:07:45;;;;;;;9.57;2.92;;;;;;;18.78;45.30;100964.44;5009584;28;20037;-49
2022/09/03 02:10:21;;;;;;;5.97;2.80;;;;;;;18.81;45.96;100964.63;5002962;28;20096;-49
2022/09/03 02:12:52;;;;;;;5.82;2.83;;;;;;;18.82;45.12;100969.00;5007322;28;20053;-51
2022/09/03 02:15:22;;;;;;;9.07;2.88;;;;;;;18.79;45.29;100961.38;5016132;28;20523;-50
2022/09/03 02:17:54;;;;;;;7.25;2.95;;;;;;;18.74;45.43;100959.53;5015814;28;20124;-50
2022/09/03 02:20:25;;;;;;;7.45;2.80;;;;;;;18.83;45.47;100961.53;5005343;28;20049;-48
2022/09/03 02:22:53;;;;;;;4.88;2.50;;;;;;;18.88;45.13;100959.44;5015667;28;20057;-53
2022/09/03 02:25:23;;;;;;;7.38;2.60;;;;;;;18.87;45.02;100957.00;5033103;28;20048;-52
2022/09/03 02:27:52;;;;;;;5.38;2.50;;;;;;;18.82;45.40;100948.88;5010063;28;20112;-49
2022/09/03 02:30:19;;;;;;;5.95;2.65;;;;;;;18.85;45.77;100953.75;5019882;28;20048;-50
2022/09/03 02:32:47;;;;;;;6.45;2.70;;;;;;;18.89;45.27;100957.50;5031732;28;20038;-50
2022/09/03 02:35:15;;;;;;;9.10;2.92;;;;;;;18.79;45.32;100955.03;5039586;28;20607;-51
2022/09/03 02:37:42;;;;;;;5.93;2.58;;;;;;;18.74;45.84;100953.22;5001310;28;20052;-50
2022/09/03 02:40:10;;;;;;;8.10;2.75;;;;;;;18.61;45.75;100954.94;5024602;28;20611;-49
2022/09/03 02:42:38;;;;;;;8.85;3.15;;;;;;;18.54;45.80;100954.56;5026539;28;20038;-50
2022/09/03 02:45:19;;;;;;;6.55;3.13;;;;;;;18.49;46.32;100951.97;5029970;28;20044;-50
2022/09/03 02:47:51;;;;;;;5.50;2.65;;;;;;;18.46;46.18;100955.38;5029899;28;20042;-53
2022/09/03 02:50:19;;;;;;;7.32;2.75;;;;;;;18.50;46.03;100954.41;5024382;28;20049;-53
2022/09/03 02:52:47;;;;;;;6.55;2.78;;;;;;;18.51;45.85;100955.22;5030428;28;20389;-49
2022/09/03 02:55:15;;;;;;;5.40;2.78;;;;;;;18.44;46.18;100950.16;5023999;28;20042;-49
2022/09/03 02:57:42;;;;;;;6.55;2.42;;;;;;;18.40;46.42;100957.47;5036960;28;20389;-50
2022/09/03 03:00:11;;;;;;;6.25;2.80;;;;;;;18.36;46.32;100950.13;5036773;28;20049;-51
2022/09/03 03:02:39;;;;;;;5.32;3.00;;;;;;;18.39;46.30;100946.72;5015912;28;20057;-51
2022/09/03 03:05:08;;;;;;;4.90;2.42;;;;;;;18.43;46.35;100958.78;5030158;28;20045;-51
2022/09/03 03:07:39;;;;;;;6.28;2.75;;;;;;;18.34;46.52;100949.63;5036652;28;20041;-52
2022/09/03 03:10:07;;;;;;;9.80;3.10;;;;;;;18.37;46.63;100954.50;5002976;28;20049;-51
2022/09/03 03:12:35;;;;;;;5.05;2.40;;;;;;;18.37;46.76;100951.75;5036724;28;20041;-51
2022/09/03 03:15:04;;;;;;;6.32;2.65;;;;;;;18.39;46.70;100947.53;5028562;28;20048;-49
2022/09/03 03:17:32;;;;;;;6.43;2.38;;;;;;;18.45;46.53;100951.81;5036322;28;20112;-50
2022/09/03 03:19:59;;;;;;;5.93;2.90;;;;;;;18.47;46.24;100955.06;5019226;28;20048;-50
2022/09/03 03:22:27;;;;;;;5.47;2.55;;;;;;;18.47;46.13;100956.97;5036104;28;20042;-52
2022/09/03 03:24:56;;;;;;;5.15;2.53;;;;;;;18.38;46.87;100951.44;5030476;28;20454;-49
2022/09/03 03:27:24;;;;;;;4.95;2.80;;;;;;;18.38;46.39;100950.63;5036055;28;20057;-50
2022/09/03 03:29:53;;;;;;;7.30;2.55;;;;;;;18.36;46.41;100952.91;5036384;28;20045;-51
2022/09/03 03:32:21;;;;;;;7.35;2.90;;;;;;;18.31;46.42;100949.13;5036521;28;20044;-50
2022/09/03 03:34:49;;;;;;;5.65;2.58;;;;;;;18.25;46.88;100947.63;5005752;28;20041;-52
2022/09/03 03:37:16;;;;;;;5.10;2.47;;;;;;;18.22;46.67;100953.78;5036654;28;20037;-50
2022/09/03 03:39:44;;;;;;;7.13;2.60;;;;;;;18.24;46.90;100950.72;5036172;28;20083;-50
2022/09/03 03:42:13;;;;;;;4.90;2.38;;;;;;;18.20;46.99;100953.28;5018367;28;20040;-50
2022/09/03 03:44:42;;;;;;;6.70;2.42;;;;;;;18.22;46.90;100950.22;5023968;28;20046;-50
2022/09/03 03:47:11;;;;;;;7.82;2.83;;;;;;;18.18;46.92;100941.75;5026872;28;20095;-50
2022/09/03 03:49:38;;;;;;;5.40;2.53;;;;;;;18.19;47.22;100946.16;5035849;28;20038;-50
2022/09/03 03:52:07;;;;;;;10.30;3.03;;;;;;;18.21;47.30;100949.41;5035971;28;20084;-49
2022/09/03 03:54:35;;;;;;;6.57;2.70;;;;;;;18.15;47.23;100956.19;5009527;28;20504;-49
2022/09/03 03:57:03;;;;;;;5.43;2.50;;;;;;;18.09;47.28;100954.69;5035540;28;20419;-50
2022/09/03 03:59:30;;;;;;;8.65;3.28;;;;;;;18.08;47.62;100950.31;5035789;28;20041;-50
2022/09/03 04:01:58;;;;;;;5.65;2.83;;;;;;;18.05;47.63;100948.19;5034470;28;20057;-49
2022/09/03 04:04:26;;;;;;;7.65;2.92;;;;;;;18.02;47.71;100957.09;5024238;28;20049;-50
2022/09/03 04:06:54;;;;;;;6.97;3.00;;;;;;;17.99;47.94;100953.03;5031258;28;20041;-53
2022/09/03 04:09:21;;;;;;;5.78;2.53;;;;;;;17.95;48.18;100949.25;5017032;28;20582;-49
2022/09/03 04:11:49;;;;;;;8.98;2.80;;;;;;;17.98;47.93;100954.13;5016736;28;20455;-52
2022/09/03 04:14:17;;;;;;;7.75;2.78;;;;;;;18.02;47.82;100954.34;5028106;28;20053;-49
2022/09/03 04:16:45;;;;;;;5.82;3.00;;;;;;;18.02;47.94;100954.34;5028751;28;20106;-51
2022/09/03 04:19:13;;;;;;;7.78;2.80;;;;;;;17.96;47.99;100950.06;5017708;28;20068;-50
2022/09/03 04:21:41;;;;;;;5.13;2.50;;;;;;;17.90;47.94;100951.34;5035342;28;20404;-51
2022/09/03 04:24:09;;;;;;;6.93;2.72;;;;;;;17.89;48.08;100953.25;4998010;28;20054;-52
2022/09/03 04:26:37;;;;;;;5.05;2.47;;;;;;;17.91;48.33;100941.94;5025917;28;20056;-51
2022/09/03 04:29:06;;;;;;;5.95;2.45;;;;;;;17.90;48.40;100940.31;5035009;28;20570;-47
2022/09/03 04:31:36;;;;;;;7.05;2.70;;;;;;;17.94;48.31;100936.59;5035466;28;20045;-46
2022/09/03 04:34:05;;;;;;;6.40;2.83;;;;;;;17.90;48.44;100935.59;5028999;28;20118;-46
2022/09/03 04:36:33;;;;;;;6.30;2.83;;;;;;;17.88;48.52;100937.88;5035079;28;20045;-45
2022/09/03 04:39:02;;;;;;;6.43;2.70;;;;;;;17.83;48.73;100938.81;5001737;28;20075;-46
2022/09/03 04:41:31;;;;;;;9.98;2.92;;;;;;;17.83;48.54;100941.56;5017281;28;20053;-46
2022/09/03 04:43:59;;;;;;;8.05;2.90;;;;;;;17.75;48.72;100931.28;5030539;28;20068;-46
2022/09/03 04:46:32;;;;;;;10.23;3.00;;;;;;;17.73;48.84;100936.28;5017176;28;20042;-46
2022/09/03 04:49:01;;;;;;;7.30;3.08;;;;;;;17.74;49.02;100937.88;5035093;28;20041;-48
2022/09/03 04:51:29;;;;;;;8.77;3.00;;;;;;;17.71;48.92;100940.47;5017222;28;20049;-47
2022/09/03 04:54:00;;;;;;;11.00;2.88;;;;;;;17.75;49.29;100944.22;5000532;28;20057;-49
2022/09/03 04:56:30;;;;;;;7.53;2.88;;;;;;;17.78;49.06;100941.66;5009113;28;20083;-50
2022/09/03 04:59:02;;;;;;;7.93;2.63;;;;;;;17.73;49.09;100940.97;5011337;28;20382;-52
2022/09/03 05:01:31;;;;;;;5.18;2.53;;;;;;;17.72;49.24;100945.66;5010982;28;20065;-53
2022/09/03 05:04:00;;;;;;;8.80;2.80;;;;;;;17.71;49.50;100944.03;5017304;28;20052;-50
2022/09/03 05:06:29;;;;;;;7.15;2.92;;;;;;;17.66;49.46;100953.25;5034336;28;20061;-48
2022/09/03 05:08:58;;;;;;;6.55;2.60;;;;;;;17.67;49.56;100956.81;5032315;28;20496;-48
2022/09/03 05:11:27;;;;;;;8.45;2.88;;;;;;;17.70;49.58;100950.66;5001697;28;20468;-51
2022/09/03 05:13:56;;;;;;;6.80;2.83;;;;;;;17.66;49.34;100950.50;5032237;28;20045;-50
2022/09/03 05:16:25;;;;;;;4.72;2.58;;;;;;;17.65;49.46;100948.88;5016727;28;20528;-49
2022/09/03 05:18:54;;;;;;;5.95;2.55;;;;;;;17.70;49.24;100953.41;5016581;28;20040;-49
2022/09/03 05:21:23;;;;;;;8.32;2.53;;;;;;;17.77;49.42;100953.78;5007959;28;20123;-50
2022/09/03 05:23:51;;;;;;;5.72;2.60;;;;;;;17.77;49.13;100948.28;5016345;28;20099;-50
2022/09/03 05:26:22;;;;;;;9.95;2.60;;;;;;;17.78;49.53;100949.94;5033798;28;20468;-49
2022/09/03 05:28:54;;;;;;;5.00;2.42;;;;;;;17.78;49.16;100941.66;5033782;28;20045;-50
2022/09/03 05:31:24;;;;;;;5.15;2.67;;;;;;;17.83;49.29;100949.81;5010672;28;20520;-51
2022/09/03 05:33:57;;;;;;;10.13;3.10;;;;;;;17.82;49.22;100944.63;5033615;28;20042;-50
2022/09/03 05:36:27;;;;;;;7.40;2.90;;;;;;;17.78;49.61;100940.84;5016553;28;20045;-49
2022/09/03 05:38:55;;;;;;;7.30;2.60;;;;;;;17.82;49.99;100945.47;5010498;28;20065;-53
2022/09/03 05:41:26;;;;;;;8.25;2.95;;;;;;;17.81;49.39;100943.81;4990350;28;20492;-50
2022/09/03 05:43:57;;;;;;;9.05;2.72;;;;;;;17.76;49.05;100945.84;5015799;28;20052;-48
2022/09/03 05:46:31;;;;;;;9.30;3.08;;;;;;;17.72;49.63;100944.84;5032826;28;20087;-50
2022/09/03 05:49:00;;;;;;;5.82;2.50;;;;;;;17.72;49.55;100942.91;5012746;28;20428;-52
2022/09/03 05:51:29;;;;;;;5.35;2.53;;;;;;;17.62;49.83;100952.22;5028992;28;20050;-49
2022/09/03 05:53:58;;;;;;;9.00;2.50;;;;;;;17.56;49.97;100947.19;4999326;28;20054;-50
2022/09/03 05:56:27;;;;;;;6.45;2.75;;;;;;;17.54;50.14;100941.16;5033521;28;20049;-47
2022/09/03 05:58:59;;;;;;;7.72;2.63;;;;;;;17.58;50.05;100950.41;5033636;28;20098;-51
2022/09/03 06:01:30;;;;;;;16.23;4.30;;;;;;;17.63;50.43;100948.38;5026918;28;20424;-52
2022/09/03 06:04:00;;;;;;;14.30;3.55;;;;;;;17.61;49.99;100941.53;5033389;28;20041;-51
2022/09/03 06:06:30;;;;;;;9.32;3.13;;;;;;;17.64;50.33;100946.41;5004952;28;20045;-50
2022/09/03 06:09:01;;;;;;;12.35;4.30;;;;;;;17.72;50.46;100944.84;5014966;28;20091;-49
2022/09/03 06:11:31;;;;;;;11.95;3.08;;;;;;;17.79;49.82;100950.75;5033316;28;20034;-49
2022/09/03 06:14:01;;;;;;;10.02;3.20;;;;;;;17.87;49.74;100953.59;5015669;28;20053;-53
2022/09/03 06:16:30;;;;;;;18.48;4.32;;;;;;;17.86;50.15;100953.91;5033159;28;20076;-49
2022/09/03 06:19:02;;;;;;;17.63;4.97;;;;;;;17.85;49.71;100947.56;5016841;28;20029;-53
2022/09/03 06:21:30;;;;;;;16.77;5.32;;;;;;;17.87;49.70;100956.34;5023872;28;20049;-49
2022/09/03 06:23:58;;;;;;;10.65;3.53;;;;;;;17.91;49.47;100952.97;5014564;28;20061;-50
2022/09/03 06:26:27;;;;;;;13.43;4.60;;;;;;;17.97;50.42;100952.53;5033010;28;20096;-50
2022/09/03 06:28:56;;;;;;;6.35;2.70;;;;;;;17.90;49.55;100951.34;5019921;28;20504;-50
2022/09/03 06:31:24;;;;;;;7.47;3.17;;;;;;;17.90;49.34;100954.09;4999112;28;20461;-51
2022/09/03 06:33:53;;;;;;;9.65;3.28;;;;;;;17.89;49.86;100950.50;5015343;28;20393;-51
2022/09/03 06:36:23;;;;;;;12.18;3.25;;;;;;;17.88;49.74;100957.97;5032699;28;20041;-50
2022/09/03 06:38:52;;;;;;;6.28;2.72;;;;;;;17.97;49.45;100957.22;5023583;28;20447;-53
2022/09/03 06:41:23;;;;;;;10.45;3.88;;;;;;;18.04;49.91;100957.59;5015208;28;20064;-50
2022/09/03 06:44:03;;;;;;;8.15;2.92;;;;;;;18.08;49.52;100955.81;5015842;28;20038;-50
2022/09/03 06:46:33;;;;;;;5.90;2.60;;;;;;;18.12;49.32;100953.25;5016621;28;20048;-50
2022/09/03 06:49:02;;;;;;;7.45;3.03;;;;;;;18.21;50.02;100952.16;5026763;28;20038;-49
2022/09/03 06:51:31;;;;;;;7.78;2.83;;;;;;;18.26;49.56;100953.97;5038946;28;20041;-50
2022/09/03 06:54:10;;;;;;;12.10;2.63;;;;;;;18.24;49.14;100954.28;5031749;28;20582;-52
2022/09/03 06:56:39;;;;;;;10.95;2.70;;;;;;;18.27;49.22;100956.41;5039115;28;20084;-49
2022/09/03 06:59:12;;;;;;;4.15;2.53;;;;;;;18.31;49.01;100960.16;5026183;28;20112;-48
2022/09/03 07:01:42;;;;;;;8.30;2.70;;;;;;;18.34;49.24;100949.63;5018107;28;20046;-50
2022/09/03 07:04:15;;;;;;;7.60;2.70;;;;;;;18.42;49.95;100955.16;5038037;28;20052;-51
2022/09/03 07:06:44;;;;;;;8.10;2.70;;;;;;;18.43;49.09;100956.00;5032951;28;20049;-49
2022/09/03 07:09:14;;;;;;;5.70;3.03;;;;;;;18.49;49.01;100954.72;5032854;28;20048;-50
2022/09/03 07:11:45;;;;;;;5.88;2.80;;;;;;;18.53;48.86;100952.97;5009758;28;20053;-46
2022/09/03 07:14:16;;;;;;;6.75;2.25;;;;;;;18.53;48.72;100964.00;5032810;28;20049;-47
2022/09/03 07:16:45;;;;;;;5.80;2.60;;;;;;;18.56;48.70;100963.34;5032538;28;20381;-49
2022/09/03 07:19:12;;;;;;;5.63;2.70;;;;;;;18.68;48.85;100965.50;5032472;28;20078;-50
2022/09/03 07:21:41;;;;;;;9.15;2.67;;;;;;;18.65;48.51;100964.22;5019024;28;20049;-51
2022/09/03 07:24:15;;;;;;;6.90;2.70;;;;;;;18.64;48.67;100959.84;5014237;28;20048;-53
2022/09/03 07:26:45;;;;;;;5.75;2.60;;;;;;;18.70;48.73;100964.06;5032827;28;20523;-50
2022/09/03 07:29:14;;;;;;;7.00;2.80;;;;;;;18.79;49.35;100955.03;5032607;28;20095;-49
2022/09/03 07:31:43;;;;;;;7.45;2.90;;;;;;;18.77;48.74;100957.31;5022023;28;20042;-50
2022/09/03 07:34:12;;;;;;;7.20;2.85;;;;;;;18.76;48.29;100953.75;4995816;28;20496;-46
2022/09/03 07:36:49;;;;;;;4.65;2.35;;;;;;;18.74;49.55;100947.69;5035708;28;20044;-47
2022/09/03 07:39:18;;;;;;;9.05;2.72;;;;;;;18.80;48.70;100967.69;5035203;28;20046;-49
2022/09/03 07:41:46;;;;;;;13.77;3.35;;;;;;;18.82;48.71;100962.69;5003231;28;20054;-49
2022/09/03 07:44:18;;;;;;;7.00;2.80;;;;;;;18.83;48.46;100967.88;5031594;28;20412;-49
2022/09/03 07:46:48;;;;;;;4.60;2.30;;;;;;;18.90;48.45;100967.41;5034730;28;20049;-48
2022/09/03 07:49:16;;;;;;;7.32;3.03;;;;;;;18.95;48.38;100970.00;5018731;28;20053;-49
2022/09/03 07:51:45;;;;;;;10.05;3.00;;;;;;;18.97;48.11;100966.94;5035436;28;20045;-49
2022/09/03 07:54:13;;;;;;;7.85;2.95;;;;;;;18.97;48.15;100967.75;5034543;28;20052;-51
2022/09/03 07:56:40;;;;;;;5.28;2.30;;;;;;;18.98;48.18;100963.03;5031711;28;20052;-47
2022/09/03 07:59:10;;;;;;;6.80;2.47;;;;;;;19.00;48.14;100967.13;5036096;28;20042;-50
2022/09/03 08:01:38;;;;;;;8.35;2.67;;;;;;;19.03;48.07;100960.94;5002012;28;20065;-48
2022/09/03 08:04:09;;;;;;;8.90;2.78;;;;;;;19.06;48.03;100963.06;5030802;28;20088;-51
2022/09/03 08:06:38;;;;;;;8.13;2.60;;;;;;;19.11;48.31;100971.19;5002002;28;20054;-50
2022/09/03 08:09:08;;;;;;;5.70;2.33;;;;;;;19.14;48.05;100967.75;4998534;28;20046;-51
2022/09/03 08:11:38;;;;;;;8.27;2.67;;;;;;;19.17;47.85;100971.88;5002159;28;20041;-53
2022/09/03 08:14:08;;;;;;;5.65;2.42;;;;;;;19.19;48.03;100964.03;4982117;28;20057;-55
2022/09/03 08:16:41;;;;;;;8.40;2.72;;;;;;;19.26;48.06;100972.66;5013853;28;20495;-52
2022/09/03 08:19:10;;;;;;;11.48;2.78;;;;;;;19.30;47.48;100975.59;5015866;28;20507;-59
2022/09/03 08:21:40;;;;;;;6.35;2.63;;;;;;;19.33;47.67;100969.44;4998666;28;20049;-51
2022/09/03 08:24:09;;;;;;;8.15;2.22;;;;;;;19.39;47.88;100972.88;5015609;28;20073;-51
2022/09/03 08:26:40;;;;;;;8.63;2.58;;;;;;;19.41;47.82;100976.94;5015022;28;20386;-51
2022/09/03 08:29:09;;;;;;;6.78;2.42;;;;;;;19.44;47.85;100969.94;5015575;28;20432;-51
2022/09/03 08:31:37;;;;;;;9.82;2.67;;;;;;;19.46;47.41;100968.47;4998697;28;20088;-51
2022/09/03 08:34:06;;;;;;;5.72;2.30;;;;;;;19.49;47.42;100975.31;4981976;28;20041;-53
2022/09/03 08:36:36;;;;;;;7.32;2.58;;;;;;;19.50;47.62;100980.47;5014972;28;20045;-54
2022/09/03 08:39:08;;;;;;;4.03;2.38;;;;;;;19.50;47.67;100976.91;5015451;28;20049;-58
2022/09/03 08:41:52;;;;;;;11.65;2.67;;;;;;;19.49;47.49;100983.59;5015393;28;20046;-57
2022/09/03 08:44:19;;;;;;;9.60;2.90;;;;;;;19.52;47.34;100978.22;4986645;28;20042;-55
2022/09/03 08:46:54;;;;;;;4.82;1.95;;;;;;;19.57;47.69;100986.34;5030130;28;20500;-55
2022/09/03 08:49:34;;;;;;;5.32;2.63;;;;;;;19.64;47.31;100987.81;5017657;28;20049;-54
2022/09/03 08:52:06;;;;;;;4.72;2.22;;;;;;;19.67;47.12;100995.44;5034673;28;20115;-55
2022/09/03 08:54:36;;;;;;;4.78;2.60;;;;;;;19.71;47.49;100985.41;5034722;28;20041;-54
2022/09/03 08:57:05;;;;;;;3.22;2.10;;;;;;;19.74;47.17;100979.22;5011380;28;20050;-54
2022/09/03 08:59:33;;;;;;;8.10;2.40;;;;;;;19.79;47.07;100987.34;5009446;28;20090;-56
2022/09/03 09:02:18;;;;;;;6.45;2.60;;;;;;;19.84;47.04;100981.63;5034505;28;20412;-55
2022/09/03 09:05:15;;;;;;;6.35;2.55;;;;;;;19.90;46.80;100977.59;5034596;28;20045;-54
2022/09/03 09:07:58;;;;;;;4.40;2.40;;;;;;;19.92;46.93;100972.53;5026796;28;20052;-54
2022/09/03 09:10:39;;;;;;;5.20;2.60;;;;;;;19.94;46.79;100981.31;5026971;28;20037;-53
2022/09/03 09:13:59;;;;;;;4.75;2.40;;;;;;;20.00;46.88;100980.00;5009288;28;20049;-57
2022/09/03 09:16:45;;;;;;;6.93;3.22;;;;;;;20.08;46.44;100989.41;4888810;29;20053;-54
2022/09/03 09:19:43;;;;;;;4.05;2.30;;;;;;;20.15;46.59;100986.16;5007531;28;20058;-56
2022/09/03 09:22:18;;;;;;;7.63;2.97;;;;;;;20.20;46.26;100983.22;4994902;28;20057;-57
2022/09/03 09:24:47;;;;;;;8.13;2.97;;;;;;;20.22;46.22;100984.50;5019763;28;20511;-51
2022/09/03 09:27:16;;;;;;;6.38;2.40;;;;;;;20.23;46.20;100979.81;5025381;28;20408;-55
2022/09/03 09:29:49;;;;;;;9.10;2.53;;;;;;;20.29;46.24;100986.78;5018665;28;20057;-57
2022/09/03 09:32:19;;;;;;;5.82;2.50;;;;;;;20.34;45.93;100983.81;5015908;28;20121;-54
2022/09/03 09:34:48;;;;;;;7.00;2.42;;;;;;;20.38;46.28;100987.56;4995988;28;20041;-57
2022/09/03 09:37:19;;;;;;;9.25;2.95;;;;;;;20.41;45.90;100981.34;5020487;28;20038;-50
2022/09/03 09:39:58;;;;;;;7.45;2.42;;;;;;;20.47;45.51;100978.41;4994115;28;20041;-49
2022/09/03 09:42:28;;;;;;;8.90;2.72;;;;;;;20.53;45.71;100966.81;5030646;28;20048;-54
2022/09/03 09:44:56;;;;;;;6.72;2.63;;;;;;;20.58;45.52;100974.16;5034189;28;20050;-54
2022/09/03 09:47:27;;;;;;;6.85;2.80;;;;;;;20.59;45.62;100968.31;5000352;28;20045;-54
2022/09/03 09:49:58;;;;;;;5.20;2.60;;;;;;;20.62;45.79;100973.19;5016488;28;20049;-50
2022/09/03 09:52:29;;;;;;;12.02;2.60;;;;;;;20.68;45.51;100976.56;5034363;28;20053;-52
2022/09/03 09:55:07;;;;;;;6.20;2.40;;;;;;;20.75;46.09;100979.63;5006666;28;20042;-53
2022/09/03 09:57:36;;;;;;;5.85;2.70;;;;;;;20.83;45.44;100980.75;5033606;28;20033;-51
2022/09/03 10:00:11;;;;;;;9.27;2.72;;;;;;;20.87;45.41;100980.88;5016213;28;20046;-51
2022/09/03 10:02:47;;;;;;;6.07;2.63;;;;;;;20.89;45.17;100981.38;5015977;28;20515;-52
2022/09/03 10:05:25;;;;;;;5.25;2.42;;;;;;;20.91;45.12;100987.38;4992093;28;20064;-51
2022/09/03 10:08:05;;;;;;;7.20;2.75;;;;;;;20.90;45.21;100980.19;5015971;28;20049;-51
2022/09/03 10:10:42;;;;;;;9.20;2.67;;;;;;;20.92;44.63;100981.50;4999845;28;20045;-50
2022/09/03 10:13:12;;;;;;;7.20;2.60;;;;;;;20.95;44.95;100974.47;5014316;28;20045;-54
2022/09/03 10:15:46;;;;;;;7.35;2.55;;;;;;;20.95;44.87;100966.16;5015900;28;20037;-52
2022/09/03 10:18:36;;;;;;;5.40;2.80;;;;;;;20.96;44.46;100982.47;5033340;28;20052;-52
2022/09/03 10:21:05;;;;;;;4.57;2.22;;;;;;;20.98;44.75;100977.41;5007481;28;20099;-52
2022/09/03 10:23:45;;;;;;;9.73;3.83;;;;;;;21.03;45.66;100966.13;5002451;28;20053;-52
2022/09/03 10:26:16;;;;;;;9.80;2.90;;;;;;;21.08;44.93;100970.66;4991126;28;20120;-52
2022/09/03 10:28:49;;;;;;;11.60;4.35;;;;;;;21.20;45.06;100956.88;5016024;28;20052;-51
2022/09/03 10:31:44;;;;;;;6.43;2.72;;;;;;;21.39;44.08;100958.38;5016697;28;20044;-49
2022/09/03 10:34:22;;;;;;;8.05;3.00;;;;;;;21.48;44.01;100953.63;5001042;28;20054;-53
2022/09/03 10:37:05;;;;;;;7.07;2.40;;;;;;;21.46;44.23;100961.47;5006719;28;20049;-53
2022/09/03 10:39:38;;;;;;;11.20;2.60;;;;;;;21.49;44.67;100958.00;5033263;28;20037;-53
2022/09/03 10:42:46;;;;;;;8.35;3.10;;;;;;;21.52;45.96;100956.50;5032969;28;20048;-50
2022/09/03 10:45:28;;;;;;;6.20;2.37;;;;;;;21.60;43.54;100959.22;5001943;28;20515;-53
2022/09/03 10:48:03;;;;;;;10.85;3.05;;;;;;;21.64;43.31;100949.03;5005601;28;20295;-51
2022/09/03 10:50:48;;;;;;;7.05;2.60;;;;;;;21.64;43.40;100949.03;5008089;28;20034;-51
2022/09/03 10:53:37;;;;;;;6.10;2.60;;;;;;;21.62;43.46;100962.47;5011665;28;20088;-52
2022/09/03 10:56:25;;;;;;;7.53;2.88;;;;;;;21.67;43.38;100958.66;4990145;28;20038;-54
2022/09/03 10:59:17;;;;;;;8.75;2.60;;;;;;;21.71;43.13;100951.28;4988941;28;20072;-52
2022/09/03 11:01:48;;;;;;;6.57;2.90;;;;;;;21.70;43.98;100958.78;5033083;28;20504;-53
2022/09/03 11:04:19;;;;;;;6.03;2.33;;;;;;;21.71;43.71;100954.06;5016946;28;20048;-56
2022/09/03 11:06:54;;;;;;;9.20;2.38;;;;;;;21.75;43.35;100943.09;5033835;28;20042;-54
2022/09/03 11:09:34;;;;;;;7.82;2.67;;;;;;;21.82;43.09;100955.25;5024770;28;20458;-51
2022/09/03 11:12:13;;;;;;;2.95;1.95;;;;;;;21.86;42.93;100956.22;5037315;28;20045;-53
2022/09/03 11:14:45;;;;;;;8.07;2.70;;;;;;;21.97;42.86;100955.78;5019986;28;20053;-53
2022/09/03 11:17:21;;;;;;;7.75;2.50;;;;;;;21.99;42.90;100948.72;5041949;28;20045;-56
2022/09/03 11:20:12;;;;;;;4.65;2.38;;;;;;;22.03;42.63;100949.66;5026897;28;20044;-52
2022/09/03 11:22:42;;;;;;;8.38;2.53;;;;;;;22.07;42.85;100944.22;5006739;28;20049;-56
2022/09/03 11:25:11;;;;;;;7.50;2.33;;;;;;;22.06;42.79;100946.19;5019360;28;20049;-53
2022/09/03 11:27:52;;;;;;;5.95;2.53;;;;;;;22.06;42.70;100943.44;5014327;28;20064;-52
2022/09/03 11:30:28;;;;;;;4.38;2.08;;;;;;;22.15;42.57;100946.09;5003853;28;20048;-53
2022/09/03 11:33:00;;;;;;;4.80;2.10;;;;;;;22.22;42.79;100940.00;5018955;28;20037;-54
2022/09/03 11:35:40;;;;;;;5.28;2.30;;;;;;;22.25;42.52;100939.34;5019204;28;20041;-53
2022/09/03 11:38:23;;;;;;;8.60;2.45;;;;;;;22.23;44.03;100936.09;5016458;28;20067;-53
2022/09/03 11:41:14;;;;;;;5.70;2.38;;;;;;;22.21;42.93;100936.44;5036218;28;20041;-52
2022/09/03 11:43:43;;;;;;;6.30;2.45;;;;;;;22.27;42.39;100940.63;5036198;28;20045;-51
2022/09/03 11:46:22;;;;;;;5.68;2.25;;;;;;;22.29;43.85;100934.69;5002251;28;20056;-54
2022/09/03 11:49:10;;;;;;;4.72;2.10;;;;;;;22.27;42.54;100926.75;5009622;28;20048;-53
2022/09/03 11:51:40;;;;;;;2.80;2.13;;;;;;;22.33;42.16;100927.31;5014924;28;20042;-53
2022/09/03 11:54:22;;;;;;;7.97;2.50;;;;;;;22.35;41.77;100925.00;5035818;28;20512;-53
2022/09/03 11:56:50;;;;;;;6.63;2.13;;;;;;;22.37;41.63;100931.03;5014874;28;20053;-53